sensor_id;sensor_type;location;lat;lon;timestamp;pressure;altitude;pressure_sealevel;temperature;humidity
21988;BME280;11158;53.404;-1.510;2023-09-30T00:01:17;101279.00;;;14.88;60.11
21988;BME280;11158;53.404;-1.510;2023-09-30T00:04:02;101279.72;;;14.75;60.33
21988;BME280;11158;53.404;-1.510;2023-09-30T00:06:47;101269.09;;;15.10;59.63
21988;BME280;11158;53.404;-1.510;2023-09-30T00:09:31;101283.91;;;14.99;59.63
21988;BME280;11158;53.404;-1.510;2023-09-30T00:12:15;101276.47;;;15.01;59.46
21988;BME280;11158;53.404;-1.510;2023-09-30T00:15:00;101276.97;;;15.12;59.45
21988;BME280;11158;53.404;-1.510;2023-09-30T00:17:44;101272.91;;;15.22;59.03
21988;BME280;11158;53.404;-1.510;2023-09-30T00:20:28;101274.16;;;15.20;59.20
21988;BME280;11158;53.404;-1.510;2023-09-30T00:23:12;101268.75;;;15.20;59.10
21988;BME280;11158;53.404;-1.510;2023-09-30T00:25:57;101264.91;;;15.57;58.02
21988;BME280;11158;53.404;-1.510;2023-09-30T00:28:41;101269.09;;;15.88;56.82
21988;BME280;11158;53.404;-1.510;2023-09-30T00:31:25;101273.50;;;15.96;56.72
21988;BME280;11158;53.404;-1.510;2023-09-30T07:54:37;101367.38;;;18.50;50.58
21988;BME280;11158;53.404;-1.510;2023-09-30T07:57:22;101365.38;;;18.97;48.97
21988;BME280;11158;53.404;-1.510;2023-09-30T08:00:06;101369.31;;;18.94;49.20
21988;BME280;11158;53.404;-1.510;2023-09-30T08:02:53;101370.38;;;18.93;49.45
21988;BME280;11158;53.404;-1.510;2023-09-30T08:05:37;101371.94;;;18.62;50.21
21988;BME280;11158;53.404;-1.510;2023-09-30T08:08:22;101370.19;;;18.88;49.70
21988;BME280;11158;53.404;-1.510;2023-09-30T08:11:07;101349.56;;;19.19;49.38
21988;BME280;11158;53.404;-1.510;2023-09-30T08:13:51;101338.88;;;19.56;48.44
21988;BME280;11158;53.404;-1.510;2023-09-30T08:16:36;101338.09;;;19.49;48.30
21988;BME280;11158;53.404;-1.510;2023-09-30T08:19:20;101340.44;;;19.45;48.59
21988;BME280;11158;53.404;-1.510;2023-09-30T08:22:04;101340.78;;;19.55;48.68
21988;BME280;11158;53.404;-1.510;2023-09-30T08:24:48;101344.19;;;19.76;48.50
21988;BME280;11158;53.404;-1.510;2023-09-30T08:27:32;101338.72;;;20.01;48.23
21988;BME280;11158;53.404;-1.510;2023-09-30T08:30:17;101342.00;;;19.84;48.46
21988;BME280;11158;53.404;-1.510;2023-09-30T08:33:02;101342.91;;;19.78;48.12
21988;BME280;11158;53.404;-1.510;2023-09-30T08:35:51;101343.28;;;19.25;49.87
21988;BME280;11158;53.404;-1.510;2023-09-30T08:38:39;101330.84;;;19.67;49.21
21988;BME280;11158;53.404;-1.510;2023-09-30T08:41:30;101325.78;;;20.21;47.57
21988;BME280;11158;53.404;-1.510;2023-09-30T08:44:16;101326.72;;;20.45;47.07
21988;BME280;11158;53.404;-1.510;2023-09-30T08:47:00;101325.47;;;20.48;46.97
21988;BME280;11158;53.404;-1.510;2023-09-30T08:49:46;101325.41;;;20.73;46.35
21988;BME280;11158;53.404;-1.510;2023-09-30T08:52:32;101326.09;;;20.68;46.49
21988;BME280;11158;53.404;-1.510;2023-09-30T08:55:17;101322.03;;;20.89;45.93
21988;BME280;11158;53.404;-1.510;2023-09-30T08:58:02;101324.75;;;21.31;45.28
21988;BME280;11158;53.404;-1.510;2023-09-30T09:00:47;101328.50;;;20.88;46.55
21988;BME280;11158;53.404;-1.510;2023-09-30T09:03:31;101317.38;;;21.20;45.60
21988;BME280;11158;53.404;-1.510;2023-09-30T09:06:16;101314.88;;;21.61;44.47
21988;BME280;11158;53.404;-1.510;2023-09-30T09:09:14;101305.16;;;21.53;44.37
21988;BME280;11158;53.404;-1.510;2023-09-30T09:11:59;101302.44;;;20.99;45.63
21988;BME280;11158;53.404;-1.510;2023-09-30T09:14:43;101297.47;;;20.96;45.96
21988;BME280;11158;53.404;-1.510;2023-09-30T09:17:41;101304.09;;;21.00;45.72
21988;BME280;11158;53.404;-1.510;2023-09-30T09:20:28;101311.22;;;20.53;47.16
21988;BME280;11158;53.404;-1.510;2023-09-30T09:23:15;101316.81;;;21.30;45.91
21988;BME280;11158;53.404;-1.510;2023-09-30T09:25:59;101318.44;;;21.49;44.46
21988;BME280;11158;53.404;-1.510;2023-09-30T09:28:43;101321.06;;;20.84;44.76
21988;BME280;11158;53.404;-1.510;2023-09-30T09:31:29;101319.84;;;19.87;48.05
21988;BME280;11158;53.404;-1.510;2023-09-30T09:34:14;101312.72;;;20.48;47.25
21988;BME280;11158;53.404;-1.510;2023-09-30T09:36:58;101319.72;;;21.59;45.47
21988;BME280;11158;53.404;-1.510;2023-09-30T09:39:56;101330.16;;;21.85;44.48
21988;BME280;11158;53.404;-1.510;2023-09-30T09:42:41;101333.00;;;22.66;42.66
21988;BME280;11158;53.404;-1.510;2023-09-30T09:45:28;101332.25;;;23.11;41.63
21988;BME280;11158;53.404;-1.510;2023-09-30T09:48:16;101328.22;;;23.31;40.99
21988;BME280;11158;53.404;-1.510;2023-09-30T09:51:01;101335.72;;;22.95;41.29
21988;BME280;11158;53.404;-1.510;2023-09-30T09:53:46;101320.88;;;23.48;40.33
21988;BME280;11158;53.404;-1.510;2023-09-30T09:56:34;101322.34;;;23.39;40.67
21988;BME280;11158;53.404;-1.510;2023-09-30T09:59:22;101317.88;;;23.50;39.94
21988;BME280;11158;53.404;-1.510;2023-09-30T10:02:10;101319.75;;;23.66;40.20
21988;BME280;11158;53.404;-1.510;2023-09-30T10:04:55;101321.44;;;23.50;39.94
21988;BME280;11158;53.404;-1.510;2023-09-30T10:07:57;101313.06;;;23.74;39.31
21988;BME280;11158;53.404;-1.510;2023-09-30T10:10:44;101302.50;;;23.94;38.89
21988;BME280;11158;53.404;-1.510;2023-09-30T10:13:57;101304.13;;;23.61;40.05
21988;BME280;11158;53.404;-1.510;2023-09-30T10:16:47;101305.41;;;22.91;41.20
21988;BME280;11158;53.404;-1.510;2023-09-30T10:19:31;101296.97;;;22.93;41.72
21988;BME280;11158;53.404;-1.510;2023-09-30T10:25:33;101304.34;;;22.23;42.40
21988;BME280;11158;53.404;-1.510;2023-09-30T10:31:21;101299.09;;;21.39;44.08
21988;BME280;11158;53.404;-1.510;2023-09-30T10:36:55;101292.88;;;21.98;44.02
21988;BME280;11158;53.404;-1.510;2023-09-30T10:39:57;101284.19;;;22.36;43.02
21988;BME280;11158;53.404;-1.510;2023-09-30T10:45:43;101274.13;;;22.36;42.83
21988;BME280;11158;53.404;-1.510;2023-09-30T10:51:16;101275.38;;;22.46;42.89
21988;BME280;11158;53.404;-1.510;2023-09-30T10:54:12;101272.25;;;22.54;42.45
21988;BME280;11158;53.404;-1.510;2023-09-30T10:56:57;101275.38;;;22.46;42.72
21988;BME280;11158;53.404;-1.510;2023-09-30T10:59:44;101280.94;;;22.51;42.59
21988;BME280;11158;53.404;-1.510;2023-09-30T11:02:29;101275.78;;;22.14;43.36
21988;BME280;11158;53.404;-1.510;2023-09-30T11:05:13;101267.69;;;21.79;44.75
21988;BME280;11158;53.404;-1.510;2023-09-30T11:08:02;101268.75;;;21.78;44.79
21988;BME280;11158;53.404;-1.510;2023-09-30T11:10:51;101278.22;;;21.75;44.57
21988;BME280;11158;53.404;-1.510;2023-09-30T11:13:36;101268.00;;;21.94;44.31
21988;BME280;11158;53.404;-1.510;2023-09-30T11:16:20;101262.03;;;22.32;43.08
21988;BME280;11158;53.404;-1.510;2023-09-30T11:19:04;101266.03;;;22.42;42.64
21988;BME280;11158;53.404;-1.510;2023-09-30T11:21:52;101257.09;;;22.06;43.65
21988;BME280;11158;53.404;-1.510;2023-09-30T11:24:38;101256.31;;;21.93;43.87
21988;BME280;11158;53.404;-1.510;2023-09-30T11:27:23;101252.94;;;22.15;43.29
21988;BME280;11158;53.404;-1.510;2023-09-30T11:30:11;101236.81;;;22.66;42.68
21988;BME280;11158;53.404;-1.510;2023-09-30T11:32:59;101233.88;;;22.55;42.83
21988;BME280;11158;53.404;-1.510;2023-09-30T11:36:16;101223.88;;;22.73;42.47
21988;BME280;11158;53.404;-1.510;2023-09-30T11:39:02;101214.53;;;22.86;42.15
21988;BME280;11158;53.404;-1.510;2023-09-30T11:41:47;101211.56;;;22.70;42.54
21988;BME280;11158;53.404;-1.510;2023-09-30T11:44:31;101214.09;;;21.79;43.89
21988;BME280;11158;53.404;-1.510;2023-09-30T11:47:15;101222.88;;;21.46;45.09
21988;BME280;11158;53.404;-1.510;2023-09-30T11:50:00;101220.06;;;22.05;44.53
21988;BME280;11158;53.404;-1.510;2023-09-30T11:52:45;101219.22;;;22.16;44.02
21988;BME280;11158;53.404;-1.510;2023-09-30T11:55:32;101227.22;;;21.82;44.90
21988;BME280;11158;53.404;-1.510;2023-09-30T11:58:16;101221.06;;;21.75;44.53
21988;BME280;11158;53.404;-1.510;2023-09-30T12:01:02;101232.31;;;21.31;45.90
21988;BME280;11158;53.404;-1.510;2023-09-30T12:03:46;101229.16;;;21.46;45.52
21988;BME280;11158;53.404;-1.510;2023-09-30T12:06:31;101223.31;;;21.07;46.23
21988;BME280;11158;53.404;-1.510;2023-09-30T12:09:16;101213.56;;;21.42;45.84
21988;BME280;11158;53.404;-1.510;2023-09-30T12:12:06;101215.19;;;21.54;45.37
21988;BME280;11158;53.404;-1.510;2023-09-30T12:14:55;101208.19;;;21.70;45.13
21988;BME280;11158;53.404;-1.510;2023-09-30T12:17:39;101214.63;;;22.05;44.45
21988;BME280;11158;53.404;-1.510;2023-09-30T12:20:23;101214.06;;;21.91;44.97
21988;BME280;11158;53.404;-1.510;2023-09-30T12:23:09;101221.06;;;21.75;45.48
21988;BME280;11158;53.404;-1.510;2023-09-30T12:25:53;101211.13;;;21.69;45.70
21988;BME280;11158;53.404;-1.510;2023-09-30T12:28:38;101209.31;;;21.98;45.55
21988;BME280;11158;53.404;-1.510;2023-09-30T12:31:24;101207.50;;;21.40;47.82
21988;BME280;11158;53.404;-1.510;2023-09-30T12:34:08;101197.88;;;21.25;48.55
21988;BME280;11158;53.404;-1.510;2023-09-30T12:36:52;101198.25;;;21.64;47.92
21988;BME280;11158;53.404;-1.510;2023-09-30T12:39:37;101203.59;;;21.24;48.37
21988;BME280;11158;53.404;-1.510;2023-09-30T12:42:21;101196.75;;;21.45;48.32
21988;BME280;11158;53.404;-1.510;2023-09-30T12:45:06;101197.94;;;21.49;48.50
21988;BME280;11158;53.404;-1.510;2023-09-30T12:47:50;101195.09;;;21.56;47.58
21988;BME280;11158;53.404;-1.510;2023-09-30T12:50:36;101199.81;;;21.48;48.02
21988;BME280;11158;53.404;-1.510;2023-09-30T12:53:20;101204.09;;;21.44;48.81
21988;BME280;11158;53.404;-1.510;2023-09-30T12:56:04;101202.06;;;21.63;48.39
21988;BME280;11158;53.404;-1.510;2023-09-30T12:58:48;101199.78;;;21.25;48.95
21988;BME280;11158;53.404;-1.510;2023-09-30T13:01:32;101207.00;;;21.66;47.88
21988;BME280;11158;53.404;-1.510;2023-09-30T13:04:18;101200.84;;;21.36;49.05
21988;BME280;11158;53.404;-1.510;2023-09-30T13:07:02;101195.91;;;21.56;48.85
21988;BME280;11158;53.404;-1.510;2023-09-30T13:09:46;101191.28;;;21.21;49.69
21988;BME280;11158;53.404;-1.510;2023-09-30T13:12:31;101198.06;;;20.77;50.90
21988;BME280;11158;53.404;-1.510;2023-09-30T13:15:18;101195.16;;;21.02;50.69
21988;BME280;11158;53.404;-1.510;2023-09-30T13:18:03;101195.22;;;20.71;52.08
21988;BME280;11158;53.404;-1.510;2023-09-30T13:20:48;101192.03;;;20.14;54.04
21988;BME280;11158;53.404;-1.510;2023-09-30T13:23:33;101188.59;;;20.67;52.48
21988;BME280;11158;53.404;-1.510;2023-09-30T13:26:17;101178.41;;;20.02;53.75
21988;BME280;11158;53.404;-1.510;2023-09-30T13:29:01;101180.38;;;19.33;55.14
21988;BME280;11158;53.404;-1.510;2023-09-30T13:31:46;101160.66;;;19.26;55.59
21988;BME280;11158;53.404;-1.510;2023-09-30T13:34:31;101161.41;;;19.33;55.17
21988;BME280;11158;53.404;-1.510;2023-09-30T13:37:15;101147.69;;;19.28;55.07
21988;BME280;11158;53.404;-1.510;2023-09-30T13:40:00;101147.13;;;19.63;54.55
21988;BME280;11158;53.404;-1.510;2023-09-30T13:42:45;101135.22;;;20.01;53.98
21988;BME280;11158;53.404;-1.510;2023-09-30T13:45:29;101135.25;;;20.43;53.02
21988;BME280;11158;53.404;-1.510;2023-09-30T13:48:13;101130.63;;;20.74;52.71
21988;BME280;11158;53.404;-1.510;2023-09-30T13:51:07;101142.69;;;20.89;52.52
21988;BME280;11158;53.404;-1.510;2023-09-30T13:53:51;101137.97;;;20.43;53.05
21988;BME280;11158;53.404;-1.510;2023-09-30T13:56:37;101130.88;;;20.42;53.05
21988;BME280;11158;53.404;-1.510;2023-09-30T13:59:21;101137.59;;;20.69;52.55
21988;BME280;11158;53.404;-1.510;2023-09-30T14:02:05;101132.56;;;20.13;54.34
21988;BME280;11158;53.404;-1.510;2023-09-30T14:04:49;101122.72;;;19.63;56.14
21988;BME280;11158;53.404;-1.510;2023-09-30T14:07:34;101125.91;;;19.78;56.02
21988;BME280;11158;53.404;-1.510;2023-09-30T14:10:19;101119.09;;;19.87;56.12
21988;BME280;11158;53.404;-1.510;2023-09-30T14:13:04;101112.47;;;19.46;56.50
21988;BME280;11158;53.404;-1.510;2023-09-30T14:15:49;101120.31;;;19.18;58.11
21988;BME280;11158;53.404;-1.510;2023-09-30T14:18:34;101149.69;;;18.96;59.16
21988;BME280;11158;53.404;-1.510;2023-09-30T14:21:20;101165.25;;;19.00;58.48
21988;BME280;11158;53.404;-1.510;2023-09-30T14:24:04;101148.09;;;19.32;57.52
21988;BME280;11158;53.404;-1.510;2023-09-30T14:26:48;101134.13;;;18.84;58.93
21988;BME280;11158;53.404;-1.510;2023-09-30T14:29:34;101143.59;;;18.69;59.10
21988;BME280;11158;53.404;-1.510;2023-09-30T14:32:18;101158.03;;;17.86;61.41
21988;BME280;11158;53.404;-1.510;2023-09-30T14:35:03;101170.22;;;16.96;60.05
21988;BME280;11158;53.404;-1.510;2023-09-30T14:37:49;101162.94;;;17.17;59.54
21988;BME280;11158;53.404;-1.510;2023-09-30T14:40:38;101156.72;;;17.23;58.84
21988;BME280;11158;53.404;-1.510;2023-09-30T14:43:26;101156.22;;;17.59;57.81
21988;BME280;11158;53.404;-1.510;2023-09-30T14:46:10;101153.38;;;16.68;58.66
21988;BME280;11158;53.404;-1.510;2023-09-30T14:48:54;101169.59;;;16.81;58.97
21988;BME280;11158;53.404;-1.510;2023-09-30T14:51:38;101157.53;;;16.64;58.65
21988;BME280;11158;53.404;-1.510;2023-09-30T14:54:23;101155.09;;;17.02;58.50
21988;BME280;11158;53.404;-1.510;2023-09-30T14:57:08;101145.31;;;17.08;58.37
21988;BME280;11158;53.404;-1.510;2023-09-30T14:59:53;101139.25;;;17.19;57.74
21988;BME280;11158;53.404;-1.510;2023-09-30T15:02:38;101136.72;;;17.37;57.54
21988;BME280;11158;53.404;-1.510;2023-09-30T15:05:24;101124.78;;;17.72;56.70
21988;BME280;11158;53.404;-1.510;2023-09-30T15:08:08;101107.78;;;17.58;56.11
21988;BME280;11158;53.404;-1.510;2023-09-30T15:10:54;101098.53;;;17.86;55.09
21988;BME280;11158;53.404;-1.510;2023-09-30T15:13:38;101095.41;;;18.52;53.57
21988;BME280;11158;53.404;-1.510;2023-09-30T15:16:23;101077.41;;;18.90;53.02
21988;BME280;11158;53.404;-1.510;2023-09-30T15:19:08;101071.78;;;18.91;52.08
21988;BME280;11158;53.404;-1.510;2023-09-30T15:21:53;101075.78;;;18.89;52.20
21988;BME280;11158;53.404;-1.510;2023-09-30T15:24:37;101080.25;;;18.51;53.70
21988;BME280;11158;53.404;-1.510;2023-09-30T15:27:21;101076.22;;;18.60;53.91
21988;BME280;11158;53.404;-1.510;2023-09-30T15:30:06;101072.28;;;18.56;55.00
21988;BME280;11158;53.404;-1.510;2023-09-30T15:32:50;101052.22;;;18.07;56.07
21988;BME280;11158;53.404;-1.510;2023-09-30T15:35:34;101049.00;;;18.24;55.44
21988;BME280;11158;53.404;-1.510;2023-09-30T15:38:19;101042.72;;;18.30;55.29
21988;BME280;11158;53.404;-1.510;2023-09-30T15:41:05;101051.16;;;18.15;55.39
21988;BME280;11158;53.404;-1.510;2023-09-30T15:43:50;101051.69;;;17.98;55.98
21988;BME280;11158;53.404;-1.510;2023-09-30T15:46:34;101040.38;;;18.08;55.77
21988;BME280;11158;53.404;-1.510;2023-09-30T15:49:18;101035.81;;;18.02;55.79
21988;BME280;11158;53.404;-1.510;2023-09-30T15:52:02;101025.31;;;17.87;56.13
21988;BME280;11158;53.404;-1.510;2023-09-30T15:54:47;101022.63;;;17.80;55.70
21988;BME280;11158;53.404;-1.510;2023-09-30T15:57:31;101007.66;;;17.78;55.84
21988;BME280;11158;53.404;-1.510;2023-09-30T16:00:15;101019.16;;;17.22;57.25
21988;BME280;11158;53.404;-1.510;2023-09-30T16:03:00;101021.22;;;17.26;57.36
21988;BME280;11158;53.404;-1.510;2023-09-30T16:05:44;101012.81;;;17.48;57.03
21988;BME280;11158;53.404;-1.510;2023-09-30T16:08:28;101012.59;;;16.64;60.36
21988;BME280;11158;53.404;-1.510;2023-09-30T16:11:12;101005.97;;;16.47;61.87
21988;BME280;11158;53.404;-1.510;2023-09-30T16:13:56;101004.75;;;16.43;61.77
21988;BME280;11158;53.404;-1.510;2023-09-30T16:16:40;100997.28;;;16.31;62.23
21988;BME280;11158;53.404;-1.510;2023-09-30T16:19:24;101003.06;;;16.68;61.41
21988;BME280;11158;53.404;-1.510;2023-09-30T16:22:08;101007.63;;;16.21;62.41
21988;BME280;11158;53.404;-1.510;2023-09-30T16:24:53;101011.75;;;15.97;63.42
21988;BME280;11158;53.404;-1.510;2023-09-30T16:27:37;101003.63;;;15.77;64.19
21988;BME280;11158;53.404;-1.510;2023-09-30T16:30:22;101000.41;;;16.22;63.11
21988;BME280;11158;53.404;-1.510;2023-09-30T16:33:06;101004.28;;;16.12;63.32
21988;BME280;11158;53.404;-1.510;2023-09-30T16:35:51;101006.81;;;16.21;63.26
21988;BME280;11158;53.404;-1.510;2023-09-30T16:38:35;101008.84;;;16.05;63.44
21988;BME280;11158;53.404;-1.510;2023-09-30T16:41:19;101003.28;;;16.40;62.66
21988;BME280;11158;53.404;-1.510;2023-09-30T16:44:06;101010.13;;;16.36;63.20
21988;BME280;11158;53.404;-1.510;2023-09-30T16:46:50;101015.91;;;16.93;61.66
21988;BME280;11158;53.404;-1.510;2023-09-30T16:49:34;101010.97;;;16.30;63.59
21988;BME280;11158;53.404;-1.510;2023-09-30T16:52:18;101012.16;;;15.87;66.09
21988;BME280;11158;53.404;-1.510;2023-09-30T16:55:03;101019.41;;;15.87;66.36
21988;BME280;11158;53.404;-1.510;2023-09-30T16:57:47;101021.28;;;15.93;66.72
21988;BME280;11158;53.404;-1.510;2023-09-30T17:00:31;101017.56;;;15.87;66.72
21988;BME280;11158;53.404;-1.510;2023-09-30T17:03:15;101019.59;;;15.72;67.40
21988;BME280;11158;53.404;-1.510;2023-09-30T17:05:59;101014.03;;;15.39;69.17
21988;BME280;11158;53.404;-1.510;2023-09-30T17:08:44;101014.09;;;15.52;67.89
21988;BME280;11158;53.404;-1.510;2023-09-30T17:11:28;101004.09;;;14.98;69.71
21988;BME280;11158;53.404;-1.510;2023-09-30T17:14:12;101010.44;;;14.83;70.53
21988;BME280;11158;53.404;-1.510;2023-09-30T17:16:57;101002.53;;;15.10;69.31
21988;BME280;11158;53.404;-1.510;2023-09-30T17:19:42;100997.00;;;14.83;70.75
21988;BME280;11158;53.404;-1.510;2023-09-30T17:22:26;100992.91;;;14.59;71.17
21988;BME280;11158;53.404;-1.510;2023-09-30T17:25:10;100994.44;;;14.47;72.20
21988;BME280;11158;53.404;-1.510;2023-09-30T17:27:54;100990.34;;;15.14;69.91
21988;BME280;11158;53.404;-1.510;2023-09-30T17:30:38;100988.22;;;15.03;70.14
21988;BME280;11158;53.404;-1.510;2023-09-30T17:33:23;100984.47;;;15.52;68.71
21988;BME280;11158;53.404;-1.510;2023-09-30T17:36:07;100974.63;;;16.19;66.08
21988;BME280;11158;53.404;-1.510;2023-09-30T17:38:51;100973.63;;;16.27;66.35
21988;BME280;11158;53.404;-1.510;2023-09-30T17:41:36;100966.56;;;15.99;67.01
21988;BME280;11158;53.404;-1.510;2023-09-30T17:44:21;100972.34;;;16.56;65.19
21988;BME280;11158;53.404;-1.510;2023-09-30T17:47:05;100958.41;;;16.72;64.02
21988;BME280;11158;53.404;-1.510;2023-09-30T17:49:49;100956.56;;;16.80;64.03
21988;BME280;11158;53.404;-1.510;2023-09-30T17:52:34;100964.34;;;17.08;63.39
21988;BME280;11158;53.404;-1.510;2023-09-30T17:55:19;100968.94;;;17.01;63.00
21988;BME280;11158;53.404;-1.510;2023-09-30T17:58:03;100965.81;;;17.04;63.21
21988;BME280;11158;53.404;-1.510;2023-09-30T18:00:49;100960.41;;;17.04;62.92
21988;BME280;11158;53.404;-1.510;2023-09-30T18:03:33;100967.34;;;16.80;63.16
21988;BME280;11158;53.404;-1.510;2023-09-30T18:06:17;100965.47;;;16.60;64.02
21988;BME280;11158;53.404;-1.510;2023-09-30T18:09:02;100957.56;;;16.85;63.59
21988;BME280;11158;53.404;-1.510;2023-09-30T18:11:47;100954.84;;;16.72;63.52
21988;BME280;11158;53.404;-1.510;2023-09-30T18:14:31;100952.44;;;16.37;64.52
21988;BME280;11158;53.404;-1.510;2023-09-30T18:17:15;100961.16;;;16.26;65.07
21988;BME280;11158;53.404;-1.510;2023-09-30T18:19:59;100954.47;;;16.68;63.70
21988;BME280;11158;53.404;-1.510;2023-09-30T18:22:43;100945.28;;;16.96;63.01
21988;BME280;11158;53.404;-1.510;2023-09-30T18:25:30;100942.81;;;16.88;62.88
21988;BME280;11158;53.404;-1.510;2023-09-30T18:28:18;100939.91;;;16.76;63.32
21988;BME280;11158;53.404;-1.510;2023-09-30T18:31:02;100938.59;;;17.05;62.23
21988;BME280;11158;53.404;-1.510;2023-09-30T18:33:46;100932.50;;;17.23;61.41
21988;BME280;11158;53.404;-1.510;2023-09-30T18:36:31;100926.06;;;16.52;63.47
21988;BME280;11158;53.404;-1.510;2023-09-30T18:39:15;100932.28;;;16.40;64.30
21988;BME280;11158;53.404;-1.510;2023-09-30T18:41:59;100929.63;;;16.06;65.60
21988;BME280;11158;53.404;-1.510;2023-09-30T18:44:43;100929.84;;;16.31;65.26
21988;BME280;11158;53.404;-1.510;2023-09-30T18:47:27;100915.88;;;16.54;63.73
21988;BME280;11158;53.404;-1.510;2023-09-30T18:50:12;100915.09;;;16.21;65.14
21988;BME280;11158;53.404;-1.510;2023-09-30T18:52:56;100904.06;;;16.42;65.07
21988;BME280;11158;53.404;-1.510;2023-09-30T18:55:43;100907.66;;;15.83;66.85
21988;BME280;11158;53.404;-1.510;2023-09-30T18:58:27;100906.78;;;15.62;67.89
21988;BME280;11158;53.404;-1.510;2023-09-30T19:01:12;100903.50;;;15.87;67.25
21988;BME280;11158;53.404;-1.510;2023-09-30T19:03:57;100904.72;;;15.78;67.35
21988;BME280;11158;53.404;-1.510;2023-09-30T19:09:46;100892.22;;;16.50;66.09
21988;BME280;11158;53.404;-1.510;2023-09-30T19:16:26;100885.25;;;15.89;67.46
21988;BME280;11158;53.404;-1.510;2023-09-30T19:19:10;100879.66;;;15.97;67.08
21988;BME280;11158;53.404;-1.510;2023-09-30T19:21:55;100882.88;;;16.52;65.66
21988;BME280;11158;53.404;-1.510;2023-09-30T19:24:39;100885.72;;;16.84;64.63
21988;BME280;11158;53.404;-1.510;2023-09-30T19:27:23;100874.03;;;16.90;64.27
21988;BME280;11158;53.404;-1.510;2023-09-30T19:30:08;100855.31;;;16.30;66.01
21988;BME280;11158;53.404;-1.510;2023-09-30T19:32:52;100848.28;;;16.36;66.42
21988;BME280;11158;53.404;-1.510;2023-09-30T19:35:39;100833.78;;;16.89;64.72
21988;BME280;11158;53.404;-1.510;2023-09-30T19:38:24;100840.28;;;17.13;63.94
21988;BME280;11158;53.404;-1.510;2023-09-30T19:41:15;100828.34;;;16.95;64.08
21988;BME280;11158;53.404;-1.510;2023-09-30T19:44:01;100829.75;;;17.05;64.16
21988;BME280;11158;53.404;-1.510;2023-09-30T19:46:45;100835.41;;;17.60;62.67
21988;BME280;11158;53.404;-1.510;2023-09-30T19:49:30;100848.41;;;17.70;62.10
21988;BME280;11158;53.404;-1.510;2023-09-30T19:52:15;100841.00;;;17.90;61.75
21988;BME280;11158;53.404;-1.510;2023-09-30T19:54:59;100818.56;;;18.08;60.98
21988;BME280;11158;53.404;-1.510;2023-09-30T19:57:43;100816.78;;;17.70;62.00
21988;BME280;11158;53.404;-1.510;2023-09-30T20:00:27;100803.69;;;17.99;61.12
21988;BME280;11158;53.404;-1.510;2023-09-30T20:03:11;100805.28;;;17.82;61.83
21988;BME280;11158;53.404;-1.510;2023-09-30T20:05:56;100811.84;;;17.92;61.57
21988;BME280;11158;53.404;-1.510;2023-09-30T20:08:40;100818.38;;;17.28;63.36
21988;BME280;11158;53.404;-1.510;2023-09-30T20:11:25;100804.41;;;17.63;62.65
21988;BME280;11158;53.404;-1.510;2023-09-30T20:14:11;100803.75;;;17.92;61.56
21988;BME280;11158;53.404;-1.510;2023-09-30T20:16:55;100797.50;;;16.65;65.49
21988;BME280;11158;53.404;-1.510;2023-09-30T20:19:39;100795.34;;;16.93;65.30
21988;BME280;11158;53.404;-1.510;2023-09-30T20:22:23;100801.41;;;16.82;65.44
21988;BME280;11158;53.404;-1.510;2023-09-30T20:25:08;100790.00;;;17.69;63.33
21988;BME280;11158;53.404;-1.510;2023-09-30T20:27:52;100795.72;;;18.04;61.65
21988;BME280;11158;53.404;-1.510;2023-09-30T20:30:36;100790.78;;;18.19;61.23
21988;BME280;11158;53.404;-1.510;2023-09-30T20:33:20;100787.75;;;18.09;61.79
21988;BME280;11158;53.404;-1.510;2023-09-30T20:36:06;100772.78;;;18.43;60.71
21988;BME280;11158;53.404;-1.510;2023-09-30T20:38:50;100767.38;;;18.43;60.71
21988;BME280;11158;53.404;-1.510;2023-09-30T20:41:34;100771.22;;;18.36;60.94
21988;BME280;11158;53.404;-1.510;2023-09-30T20:44:18;100772.38;;;18.28;61.53
21988;BME280;11158;53.404;-1.510;2023-09-30T20:47:02;100770.63;;;18.15;61.78
21988;BME280;11158;53.404;-1.510;2023-09-30T20:49:46;100774.22;;;18.28;61.80
21988;BME280;11158;53.404;-1.510;2023-09-30T20:52:30;100771.59;;;18.39;61.33
21988;BME280;11158;53.404;-1.510;2023-09-30T20:55:16;100776.75;;;18.59;60.69
21988;BME280;11158;53.404;-1.510;2023-09-30T20:58:00;100769.81;;;18.63;60.69
21988;BME280;11158;53.404;-1.510;2023-09-30T21:00:45;100771.75;;;18.75;60.70
21988;BME280;11158;53.404;-1.510;2023-09-30T21:03:29;100763.97;;;18.48;61.51
21988;BME280;11158;53.404;-1.510;2023-09-30T21:06:14;100740.66;;;18.66;60.99
21988;BME280;11158;53.404;-1.510;2023-09-30T21:08:58;100731.91;;;18.82;60.58
21988;BME280;11158;53.404;-1.510;2023-09-30T21:11:43;100729.94;;;19.01;60.07
21988;BME280;11158;53.404;-1.510;2023-09-30T21:14:27;100729.22;;;18.94;60.21
21988;BME280;11158;53.404;-1.510;2023-09-30T21:17:12;100742.41;;;18.90;60.23
21988;BME280;11158;53.404;-1.510;2023-09-30T21:19:56;100744.53;;;18.88;60.51
21988;BME280;11158;53.404;-1.510;2023-09-30T21:22:40;100730.63;;;18.66;60.86
21988;BME280;11158;53.404;-1.510;2023-09-30T21:25:24;100735.31;;;18.77;60.98
21988;BME280;11158;53.404;-1.510;2023-09-30T21:28:09;100720.75;;;18.90;60.52
21988;BME280;11158;53.404;-1.510;2023-09-30T21:30:53;100711.78;;;18.90;60.44
21988;BME280;11158;53.404;-1.510;2023-09-30T21:33:37;100701.00;;;19.01;60.33
21988;BME280;11158;53.404;-1.510;2023-09-30T21:36:21;100695.13;;;18.74;61.07
21988;BME280;11158;53.404;-1.510;2023-09-30T21:39:09;100704.31;;;19.03;60.27
21988;BME280;11158;53.404;-1.510;2023-09-30T21:41:56;100712.06;;;19.00;60.22
21988;BME280;11158;53.404;-1.510;2023-09-30T21:44:41;100693.09;;;19.00;60.45
21988;BME280;11158;53.404;-1.510;2023-09-30T21:47:29;100710.34;;;19.29;59.73
21988;BME280;11158;53.404;-1.510;2023-09-30T21:50:17;100691.38;;;19.29;59.63
21988;BME280;11158;53.404;-1.510;2023-09-30T22:07:22;100699.50;;;18.45;63.66
21988;BME280;11158;53.404;-1.510;2023-09-30T22:10:09;100701.22;;;19.12;61.55